createdAt,value
2018-08-18T00:02:16.603Z,18.50
2018-08-18T00:04:46.253Z,18.40
2018-08-18T00:07:17.656Z,18.40
2018-08-18T00:09:45.841Z,18.30
2018-08-18T00:12:19.511Z,18.30
2018-08-18T00:14:50.328Z,18.30
2018-08-18T00:17:20.459Z,18.20
2018-08-18T00:19:52.642Z,18.10
2018-08-18T00:22:21.935Z,18.00
2018-08-18T00:24:57.011Z,18.00
2018-08-18T00:27:26.564Z,17.90
2018-08-18T00:30:01.107Z,17.90
2018-08-18T00:32:30.019Z,17.90
2018-08-18T00:34:58.404Z,17.80
2018-08-18T00:37:26.872Z,17.70
2018-08-18T00:39:59.000Z,17.70
2018-08-18T00:42:28.010Z,17.70
2018-08-18T00:44:56.511Z,17.70
2018-08-18T00:47:28.546Z,17.70
2018-08-18T00:49:56.690Z,17.70
2018-08-18T00:52:26.052Z,17.60
2018-08-18T00:54:55.662Z,17.60
2018-08-18T00:57:29.616Z,17.60
2018-08-18T00:59:59.012Z,17.50
2018-08-18T01:02:27.663Z,17.50
2018-08-18T01:05:03.453Z,17.60
2018-08-18T01:07:32.743Z,17.70
2018-08-18T01:10:01.904Z,17.60
2018-08-18T01:12:30.510Z,17.60
2018-08-18T01:15:00.677Z,17.70
2018-08-18T01:17:32.886Z,17.70
2018-08-18T01:20:03.180Z,17.80
2018-08-18T01:22:33.148Z,17.80
2018-08-18T01:25:02.649Z,17.90
2018-08-18T01:27:36.548Z,17.90
2018-08-18T01:30:06.557Z,18.00
2018-08-18T01:32:35.393Z,18.00
2018-08-18T01:35:04.924Z,18.10
2018-08-18T01:37:33.313Z,18.00
2018-08-18T01:40:02.171Z,18.10
2018-08-18T01:42:34.052Z,18.10
2018-08-18T01:45:03.107Z,18.10
2018-08-18T01:47:34.972Z,18.10
2018-08-18T01:50:09.207Z,18.20
2018-08-18T01:52:38.830Z,18.10
2018-08-18T01:55:09.221Z,18.20
2018-08-18T01:57:37.903Z,18.20
2018-08-18T02:00:21.471Z,18.20
2018-08-18T02:02:54.359Z,18.10
2018-08-18T02:05:26.390Z,18.10
2018-08-18T02:07:55.220Z,18.10
2018-08-18T02:10:25.501Z,18.10
2018-08-18T02:13:00.592Z,18.00
2018-08-18T02:15:30.263Z,18.10
2018-08-18T02:18:01.788Z,18.10
2018-08-18T02:20:29.976Z,18.10
2018-08-18T02:22:59.390Z,18.00
2018-08-18T02:25:27.975Z,18.00
2018-08-18T02:27:57.415Z,18.00
2018-08-18T02:30:26.323Z,18.10
2018-08-18T02:32:54.721Z,18.10
2018-08-18T02:35:25.463Z,18.10
2018-08-18T02:37:54.827Z,18.10
2018-08-18T02:40:24.720Z,18.10
2018-08-18T02:42:54.631Z,18.10
2018-08-18T02:45:25.556Z,18.00
2018-08-18T02:48:11.051Z,18.00
2018-08-18T02:50:45.560Z,17.90
2018-08-18T02:53:22.788Z,18.00
2018-08-18T02:55:52.261Z,18.00
2018-08-18T02:58:21.264Z,17.90
2018-08-18T03:00:50.410Z,17.80
2018-08-18T03:03:19.722Z,17.70
2018-08-18T03:05:48.889Z,17.60
2018-08-18T03:08:17.084Z,17.60
2018-08-18T03:10:47.380Z,17.40
2018-08-18T03:13:15.933Z,17.40
2018-08-18T03:15:59.985Z,17.30
2018-08-18T03:19:05.079Z,17.20
2018-08-18T03:21:40.664Z,17.10
2018-08-18T03:24:20.332Z,17.10
2018-08-18T03:26:52.217Z,16.90
2018-08-18T03:29:22.228Z,16.90
2018-08-18T03:31:53.364Z,16.80
2018-08-18T03:34:22.677Z,16.70
2018-08-18T03:36:55.145Z,16.70
2018-08-18T03:39:33.004Z,16.70
2018-08-18T03:42:03.936Z,16.60
2018-08-18T03:44:35.028Z,16.50
2018-08-18T03:47:04.952Z,16.50
2018-08-18T03:49:33.810Z,16.50
2018-08-18T03:52:03.358Z,16.50
2018-08-18T03:54:32.057Z,16.50
2018-08-18T03:57:00.824Z,16.50
2018-08-18T03:59:29.993Z,16.40
2018-08-18T04:02:00.614Z,16.40
2018-08-18T04:04:32.634Z,16.30
2018-08-18T04:07:03.033Z,16.20
2018-08-18T04:09:34.760Z,16.20
2018-08-18T04:12:05.152Z,16.20
2018-08-18T04:14:38.049Z,16.10
2018-08-18T04:17:18.180Z,16.10
2018-08-18T04:19:49.038Z,16.10
2018-08-18T04:22:19.016Z,16.00
2018-08-18T04:24:51.531Z,16.00
2018-08-18T04:27:53.896Z,16.00
2018-08-18T04:30:23.718Z,15.90
2018-08-18T04:32:57.686Z,15.80
2018-08-18T04:35:27.321Z,15.80
2018-08-18T04:37:58.685Z,15.90
2018-08-18T04:40:32.439Z,15.80
2018-08-18T04:43:01.634Z,15.80
2018-08-18T04:45:31.677Z,15.90
2018-08-18T04:48:00.987Z,15.90
2018-08-18T04:50:30.986Z,15.90
2018-08-18T04:53:01.988Z,16.00
2018-08-18T04:55:31.476Z,16.00
2018-08-18T04:58:00.876Z,16.20
2018-08-18T05:00:31.504Z,16.30
2018-08-18T05:03:02.856Z,16.40
2018-08-18T05:05:32.838Z,16.50
2018-08-18T05:08:04.324Z,16.60
2018-08-18T05:10:32.540Z,16.80
2018-08-18T05:13:02.529Z,16.90
2018-08-18T05:15:36.135Z,17.00
2018-08-18T05:18:06.309Z,17.20
2018-08-18T05:20:35.306Z,17.30
2018-08-18T05:23:19.429Z,17.60
2018-08-18T05:25:49.955Z,17.80
2018-08-18T05:28:20.124Z,17.90
2018-08-18T05:30:54.248Z,18.00
2018-08-18T05:33:22.823Z,18.20
2018-08-18T05:35:52.060Z,18.60
2018-08-18T05:38:22.500Z,18.90
2018-08-18T05:40:52.748Z,19.30
2018-08-18T05:43:24.986Z,19.80
2018-08-18T05:45:54.188Z,20.00
2018-08-18T05:48:23.372Z,20.10
2018-08-18T05:50:52.770Z,20.10
2018-08-18T05:53:27.488Z,20.10
2018-08-18T05:55:56.807Z,20.20
2018-08-18T05:58:25.884Z,20.10
2018-08-18T06:01:01.828Z,20.30
2018-08-18T06:03:31.969Z,20.50
2018-08-18T06:06:04.221Z,20.50
2018-08-18T06:08:33.216Z,20.60
2018-08-18T06:11:01.612Z,20.60
2018-08-18T06:13:33.551Z,20.60
2018-08-18T06:16:15.016Z,20.60
2018-08-18T06:18:49.486Z,20.80
2018-08-18T06:21:18.241Z,20.90
2018-08-18T06:23:50.117Z,21.20
2018-08-18T06:26:18.369Z,21.40
2018-08-18T06:28:46.599Z,21.60
2018-08-18T06:31:14.740Z,21.60
2018-08-18T06:33:44.032Z,21.40
2018-08-18T06:36:15.173Z,21.30
2018-08-18T06:38:43.607Z,21.10
2018-08-18T06:41:12.168Z,21.00
2018-08-18T06:46:23.656Z,21.10
2018-08-18T06:48:55.120Z,21.30
2018-08-18T06:51:23.375Z,21.40
2018-08-18T06:53:54.967Z,21.50
2018-08-18T06:56:25.232Z,21.60
2018-08-18T06:58:58.032Z,21.60
2018-08-18T07:01:30.156Z,21.60
2018-08-18T07:04:00.785Z,21.60
2018-08-18T07:06:34.556Z,21.70
2018-08-18T07:09:04.261Z,21.80
2018-08-18T07:11:38.164Z,22.10
2018-08-18T07:16:43.680Z,22.40
2018-08-18T07:19:13.601Z,22.40
2018-08-18T07:21:42.200Z,22.50
2018-08-18T07:24:16.473Z,22.70
2018-08-18T07:26:46.646Z,23.00
2018-08-18T07:29:17.049Z,23.30
2018-08-18T07:31:46.320Z,23.40
2018-08-18T07:36:51.865Z,23.40
2018-08-18T07:39:22.010Z,23.30
2018-08-18T07:41:51.605Z,23.50
2018-08-18T07:44:20.816Z,24.40
2018-08-18T07:46:51.549Z,25.50
2018-08-18T07:49:19.694Z,26.50
2018-08-18T07:51:48.745Z,27.30
2018-08-18T07:54:16.946Z,28.10
2018-08-18T07:56:46.801Z,28.90
2018-08-18T07:59:16.374Z,29.50
2018-08-18T08:01:46.049Z,29.80
2018-08-18T08:04:16.250Z,29.80
2018-08-18T08:06:45.441Z,29.30
2018-08-18T08:09:15.557Z,28.90
2018-08-18T08:11:44.280Z,28.80
2018-08-18T08:14:14.047Z,29.40
2018-08-18T08:16:43.180Z,29.60
2018-08-18T08:19:17.771Z,30.20
2018-08-18T08:21:47.973Z,31.20
2018-08-18T08:24:18.081Z,31.80
2018-08-18T08:26:46.241Z,32.20
2018-08-18T08:29:16.305Z,32.10
2018-08-18T08:31:45.508Z,31.80
2018-08-18T08:34:14.767Z,31.90
2018-08-18T08:36:45.396Z,31.20
2018-08-18T08:39:13.537Z,31.40
2018-08-18T08:44:16.488Z,31.30
2018-08-18T08:46:57.099Z,32.10
2018-08-18T08:49:26.724Z,32.70
2018-08-18T08:51:57.023Z,33.30
2018-08-18T08:54:29.519Z,33.30
2018-08-18T08:57:05.285Z,33.50
2018-08-18T08:59:35.572Z,33.40
2018-08-18T09:02:04.335Z,33.30
2018-08-18T09:04:40.945Z,33.40
2018-08-18T09:07:12.055Z,33.90
2018-08-18T09:09:40.331Z,34.40
2018-08-18T09:12:09.195Z,33.70
2018-08-18T09:14:38.572Z,33.40
2018-08-18T09:17:09.392Z,34.10
2018-08-18T09:19:38.036Z,34.80
2018-08-18T09:22:06.222Z,35.50
2018-08-18T09:24:36.192Z,35.90
2018-08-18T09:27:07.104Z,36.10
2018-08-18T09:29:52.245Z,35.70
2018-08-18T09:32:21.121Z,35.30
2018-08-18T09:34:52.752Z,34.80
2018-08-18T09:37:21.372Z,34.70
2018-08-18T09:39:50.490Z,34.30
2018-08-18T09:42:22.719Z,34.50
2018-08-18T09:44:55.107Z,35.00
2018-08-18T09:47:27.333Z,35.30
2018-08-18T09:49:56.317Z,35.70
2018-08-18T09:52:25.733Z,35.50
2018-08-18T09:54:55.624Z,35.70
2018-08-18T09:57:28.746Z,35.80
2018-08-18T10:00:00.979Z,34.90
2018-08-18T10:02:30.144Z,34.40
2018-08-18T10:04:59.384Z,34.40
2018-08-18T10:07:29.588Z,33.50
2018-08-18T10:09:58.874Z,33.00
2018-08-18T10:12:27.345Z,33.20
2018-08-18T10:14:55.553Z,33.70
2018-08-18T10:17:25.426Z,34.30
2018-08-18T10:19:53.617Z,34.20
2018-08-18T10:22:24.380Z,33.80
2018-08-18T10:24:52.833Z,34.60
2018-08-18T10:27:21.063Z,35.50
2018-08-18T10:29:50.666Z,36.40
2018-08-18T10:32:20.812Z,37.10
2018-08-18T10:34:52.037Z,37.20
2018-08-18T10:37:23.345Z,36.80
2018-08-18T10:39:57.630Z,36.20
2018-08-18T10:42:25.839Z,35.70
2018-08-18T10:45:02.720Z,36.20
2018-08-18T10:47:31.941Z,36.80
2018-08-18T10:50:12.439Z,37.40
2018-08-18T10:52:51.917Z,37.90
2018-08-18T10:55:20.732Z,38.30
2018-08-18T10:57:57.784Z,38.80
2018-08-18T11:00:27.426Z,39.00
2018-08-18T11:02:58.691Z,39.10
2018-08-18T11:05:28.911Z,37.90
2018-08-18T11:08:04.149Z,37.60
2018-08-18T11:10:37.085Z,38.00
2018-08-18T11:13:05.300Z,38.40
2018-08-18T11:15:33.393Z,36.40
2018-08-18T11:18:01.613Z,35.00
2018-08-18T11:20:32.404Z,34.80
2018-08-18T11:23:18.538Z,34.00
2018-08-18T11:25:51.654Z,33.90
2018-08-18T11:28:22.150Z,35.40
2018-08-18T11:30:54.192Z,36.20
2018-08-18T11:33:35.757Z,36.40
2018-08-18T11:36:08.587Z,36.60
2018-08-18T11:38:37.567Z,37.20
2018-08-18T11:41:06.679Z,37.80
2018-08-18T11:43:39.567Z,36.90
2018-08-18T11:46:08.957Z,35.50
2018-08-18T11:48:37.147Z,34.90
2018-08-18T11:51:05.881Z,35.50
2018-08-18T11:53:35.984Z,36.70
2018-08-18T11:56:06.341Z,37.10
2018-08-18T11:58:37.682Z,37.10
2018-08-18T12:01:07.348Z,37.30
2018-08-18T12:03:36.083Z,37.60
2018-08-18T12:06:05.395Z,37.70
2018-08-18T12:08:35.442Z,37.80
2018-08-18T12:11:05.551Z,38.20
2018-08-18T12:13:39.944Z,38.40
2018-08-18T12:16:16.894Z,38.50
2018-08-18T12:18:47.016Z,38.10
2018-08-18T12:21:15.734Z,38.00
2018-08-18T12:23:47.396Z,38.40
2018-08-18T12:26:25.312Z,38.40
2018-08-18T12:29:00.794Z,38.30
2018-08-18T12:31:29.345Z,38.00
2018-08-18T12:33:57.580Z,38.10
2018-08-18T12:36:27.042Z,38.30
2018-08-18T12:38:56.564Z,38.40
2018-08-18T12:41:28.752Z,38.10
2018-08-18T12:43:58.759Z,38.20
2018-08-18T12:46:38.459Z,38.50
2018-08-18T12:49:07.452Z,38.30
2018-08-18T12:51:36.934Z,38.10
2018-08-18T12:54:05.605Z,38.30
2018-08-18T12:56:34.872Z,38.50
2018-08-18T12:59:04.817Z,38.50
2018-08-18T13:01:42.788Z,38.60
2018-08-18T13:04:13.779Z,38.70
2018-08-18T13:06:47.264Z,37.50
2018-08-18T13:09:18.080Z,36.10
2018-08-18T13:11:48.516Z,36.60
2018-08-18T13:14:20.312Z,37.30
2018-08-18T13:16:51.948Z,37.80
2018-08-18T13:19:24.924Z,38.10
2018-08-18T13:21:55.696Z,38.20
2018-08-18T13:24:24.761Z,38.40
2018-08-18T13:26:53.875Z,38.40
2018-08-18T13:29:22.927Z,38.10
2018-08-18T13:31:51.716Z,37.60
2018-08-18T13:34:22.077Z,37.70
2018-08-18T13:36:51.360Z,37.70
2018-08-18T13:39:20.849Z,37.50
2018-08-18T13:41:50.506Z,36.20
2018-08-18T13:44:27.398Z,36.20
2018-08-18T13:46:56.478Z,35.60
2018-08-18T13:49:28.097Z,36.20
2018-08-18T13:51:58.406Z,36.80
2018-08-18T13:54:29.291Z,36.90
2018-08-18T13:56:58.640Z,36.50
2018-08-18T13:59:39.821Z,36.80
2018-08-18T14:02:10.985Z,36.50
2018-08-18T14:04:41.264Z,36.70
2018-08-18T14:07:11.412Z,37.30
2018-08-18T14:09:47.816Z,36.90
2018-08-18T14:12:17.735Z,37.30
2018-08-18T14:14:47.732Z,37.90
2018-08-18T14:17:18.755Z,37.90
2018-08-18T14:19:48.740Z,38.20
2018-08-18T14:22:19.246Z,38.40
2018-08-18T14:24:47.896Z,38.40
2018-08-18T14:27:20.788Z,38.60
2018-08-18T14:29:49.862Z,38.80
2018-08-18T14:32:29.553Z,37.80
2018-08-18T14:35:06.936Z,37.60
2018-08-18T14:37:38.183Z,37.70
2018-08-18T14:40:16.060Z,37.10
2018-08-18T14:42:44.801Z,37.60
2018-08-18T14:45:19.811Z,37.50
2018-08-18T14:47:49.849Z,36.70
2018-08-18T14:50:27.464Z,36.60
2018-08-18T14:53:00.520Z,36.40
2018-08-18T14:55:31.112Z,36.80
2018-08-18T14:58:06.177Z,36.40
2018-08-18T15:00:38.228Z,35.00
2018-08-18T15:03:07.973Z,35.00
2018-08-18T15:05:38.826Z,34.80
2018-08-18T15:08:10.802Z,34.10
2018-08-18T15:10:45.890Z,33.60
2018-08-18T15:13:15.816Z,33.70
2018-08-18T15:15:44.090Z,34.10
2018-08-18T15:18:15.590Z,34.80
2018-08-18T15:20:46.518Z,35.30
2018-08-18T15:23:17.884Z,35.70
2018-08-18T15:25:48.575Z,35.70
2018-08-18T15:28:19.570Z,35.20
2018-08-18T15:30:49.526Z,34.10
2018-08-18T15:33:22.580Z,33.30
2018-08-18T15:35:53.764Z,33.30
2018-08-18T15:38:42.069Z,33.20
2018-08-18T15:41:11.745Z,33.60
2018-08-18T15:43:40.752Z,34.60
2018-08-18T15:46:08.959Z,34.90
2018-08-18T15:48:39.540Z,33.90
2018-08-18T15:51:12.679Z,33.20
2018-08-18T15:54:07.099Z,33.00
2018-08-18T15:56:35.715Z,33.60
2018-08-18T15:59:06.388Z,33.60
2018-08-18T16:01:37.802Z,34.10
2018-08-18T16:04:05.972Z,33.80
2018-08-18T16:06:34.824Z,33.40
2018-08-18T16:09:04.439Z,33.50
2018-08-18T16:11:34.143Z,33.50
2018-08-18T16:14:04.438Z,33.30
2018-08-18T16:16:40.684Z,33.70
2018-08-18T16:19:15.626Z,33.70
2018-08-18T16:21:45.428Z,33.00
2018-08-18T16:24:29.804Z,33.00
2018-08-18T16:27:00.117Z,32.50
2018-08-18T16:29:29.980Z,31.40
2018-08-18T16:32:14.077Z,31.20
2018-08-18T16:34:47.992Z,30.90
2018-08-18T16:37:18.316Z,30.60
2018-08-18T16:39:46.474Z,30.40
2018-08-18T16:42:16.194Z,30.20
2018-08-18T16:44:46.844Z,29.80
2018-08-18T16:47:15.518Z,29.50
2018-08-18T16:49:47.936Z,29.20
2018-08-18T16:52:17.703Z,29.20
2018-08-18T16:54:45.895Z,28.90
2018-08-18T16:57:14.791Z,28.60
2018-08-18T16:59:44.301Z,28.60
2018-08-18T17:02:28.132Z,28.40
2018-08-18T17:04:56.516Z,28.20
2018-08-18T17:07:32.947Z,28.20
2018-08-18T17:10:02.977Z,28.00
2018-08-18T17:12:32.416Z,27.80
2018-08-18T17:15:00.592Z,27.70
2018-08-18T17:17:31.264Z,27.70
2018-08-18T17:20:00.393Z,27.50
2018-08-18T17:22:28.647Z,27.50
2018-08-18T17:24:57.304Z,27.30
2018-08-18T17:27:31.255Z,27.20
2018-08-18T17:30:01.679Z,27.00
2018-08-18T17:32:29.836Z,26.90
2018-08-18T17:34:58.640Z,26.90
2018-08-18T17:37:29.804Z,26.90
2018-08-18T17:39:58.421Z,26.80
2018-08-18T17:42:29.224Z,26.60
2018-08-18T17:44:57.762Z,26.50
2018-08-18T17:47:26.113Z,26.40
2018-08-18T17:49:56.123Z,26.30
2018-08-18T17:52:25.418Z,26.20
2018-08-18T17:55:05.978Z,26.20
2018-08-18T17:57:39.564Z,26.10
2018-08-18T18:00:16.979Z,26.00
2018-08-18T18:02:51.456Z,25.90
2018-08-18T18:05:23.257Z,25.80
2018-08-18T18:08:00.229Z,25.70
2018-08-18T18:10:36.691Z,25.60
2018-08-18T18:13:18.514Z,25.40
2018-08-18T18:15:53.510Z,25.20
2018-08-18T18:18:23.941Z,25.00
2018-08-18T18:20:54.580Z,24.90
2018-08-18T18:23:23.592Z,24.70
2018-08-18T18:25:52.345Z,24.50
2018-08-18T18:28:21.023Z,24.40
2018-08-18T18:30:58.455Z,24.20
2018-08-18T18:33:27.401Z,24.00
2018-08-18T18:35:56.596Z,23.80
2018-08-18T18:38:25.432Z,23.60
2018-08-18T18:40:56.442Z,23.20
2018-08-18T18:43:26.284Z,22.60
2018-08-18T18:45:55.452Z,22.00
2018-08-18T18:48:27.417Z,21.80
2018-08-18T18:50:57.750Z,21.60
2018-08-18T18:53:27.251Z,21.50
2018-08-18T18:55:56.426Z,21.40
2018-08-18T18:58:26.195Z,21.20
2018-08-18T19:01:04.395Z,21.00
2018-08-18T19:03:33.032Z,20.80
2018-08-18T19:06:07.771Z,20.60
2018-08-18T19:08:51.223Z,20.30
2018-08-18T19:11:19.468Z,20.10
2018-08-18T19:13:48.644Z,19.90
2018-08-18T19:16:17.661Z,19.80
2018-08-18T19:18:47.720Z,19.70
2018-08-18T19:21:17.071Z,19.60
2018-08-18T19:23:46.205Z,19.30
2018-08-18T19:26:16.532Z,19.10
2018-08-18T19:28:48.006Z,18.90
2018-08-18T19:31:16.957Z,18.90
2018-08-18T19:33:45.128Z,18.90
2018-08-18T19:36:13.314Z,18.90
2018-08-18T19:38:42.335Z,18.90
2018-08-18T19:41:16.832Z,18.80
2018-08-18T19:43:45.524Z,18.80
2018-08-18T19:46:13.812Z,18.80
2018-08-18T19:48:42.998Z,18.70
2018-08-18T19:51:14.577Z,18.60
2018-08-18T19:53:44.376Z,18.60
2018-08-18T19:56:15.652Z,18.50
2018-08-18T19:58:47.908Z,18.50
2018-08-18T20:01:18.636Z,18.50
2018-08-18T20:03:47.879Z,18.50
2018-08-18T20:06:21.424Z,18.40
2018-08-18T20:08:52.213Z,18.40
2018-08-18T20:11:22.089Z,18.40
2018-08-18T20:13:50.726Z,18.30
2018-08-18T20:16:19.495Z,18.30
2018-08-18T20:18:47.660Z,18.30
2018-08-18T20:21:16.463Z,18.40
2018-08-18T20:23:45.753Z,18.40
2018-08-18T20:26:14.467Z,18.30
2018-08-18T20:28:43.506Z,18.20
2018-08-18T20:31:12.451Z,18.20
2018-08-18T20:33:42.714Z,18.20
2018-08-18T20:36:13.477Z,18.20
2018-08-18T20:38:46.412Z,18.10
2018-08-18T20:41:16.268Z,18.00
2018-08-18T20:43:48.047Z,17.90
2018-08-18T20:46:17.432Z,17.60
2018-08-18T20:48:48.597Z,17.60
2018-08-18T20:51:21.512Z,17.40
2018-08-18T20:53:51.749Z,17.30
2018-08-18T20:56:21.721Z,17.20
2018-08-18T20:58:51.595Z,17.10
2018-08-18T21:01:20.258Z,17.10
2018-08-18T21:03:50.289Z,17.20
2018-08-18T21:06:19.223Z,17.20
2018-08-18T21:08:47.767Z,17.10
2018-08-18T21:11:19.032Z,17.10
2018-08-18T21:13:51.964Z,17.10
2018-08-18T21:16:23.612Z,17.00
2018-08-18T21:18:53.299Z,17.10
2018-08-18T21:21:32.356Z,17.10
2018-08-18T21:24:02.164Z,17.00
2018-08-18T21:26:31.051Z,17.00
2018-08-18T21:28:59.796Z,17.00
2018-08-18T21:31:33.971Z,16.90
2018-08-18T21:34:05.803Z,16.80
2018-08-18T21:36:35.128Z,16.90
2018-08-18T21:39:08.260Z,16.90
2018-08-18T21:41:40.344Z,17.00
2018-08-18T21:44:12.336Z,17.00
2018-08-18T21:46:43.251Z,17.10
2018-08-18T21:49:13.917Z,17.10
2018-08-18T21:51:43.100Z,17.20
2018-08-18T21:54:11.777Z,17.20
2018-08-18T21:56:43.595Z,17.20
2018-08-18T21:59:14.853Z,17.10
2018-08-18T22:01:44.395Z,17.20
2018-08-18T22:04:13.404Z,17.20
2018-08-18T22:06:42.000Z,17.10
2018-08-18T22:09:25.425Z,17.10
2018-08-18T22:11:54.439Z,17.20
2018-08-18T22:14:24.052Z,17.20
2018-08-18T22:16:58.554Z,17.20
2018-08-18T22:19:30.029Z,17.20
2018-08-18T22:21:59.765Z,17.30
2018-08-18T22:24:28.284Z,17.30
2018-08-18T22:26:57.288Z,17.30
2018-08-18T22:29:27.910Z,17.20
2018-08-18T22:31:56.663Z,17.00
2018-08-18T22:34:26.303Z,16.90
2018-08-18T22:37:01.277Z,16.90
2018-08-18T22:39:30.328Z,16.70
2018-08-18T22:42:01.500Z,16.60
2018-08-18T22:44:30.669Z,16.70
2018-08-18T22:46:59.652Z,16.70
2018-08-18T22:49:29.932Z,16.70
2018-08-18T22:51:59.931Z,16.60
2018-08-18T22:54:29.555Z,16.50
2018-08-18T22:57:04.950Z,16.40
2018-08-18T22:59:33.779Z,16.40
2018-08-18T23:02:03.059Z,16.50
2018-08-18T23:04:36.634Z,16.60
2018-08-18T23:07:07.202Z,16.60
2018-08-18T23:09:38.257Z,16.60
2018-08-18T23:12:07.990Z,16.40
2018-08-18T23:14:37.461Z,16.30
2018-08-18T23:17:07.340Z,16.30
2018-08-18T23:19:38.175Z,16.30
2018-08-18T23:22:11.700Z,16.40
2018-08-18T23:24:44.014Z,16.50
2018-08-18T23:27:12.956Z,16.60
2018-08-18T23:29:42.272Z,16.60
2018-08-18T23:32:17.969Z,16.50
2018-08-18T23:34:50.308Z,16.50
2018-08-18T23:37:23.262Z,16.50
2018-08-18T23:39:56.508Z,16.50
2018-08-18T23:42:26.740Z,16.50
2018-08-18T23:44:54.940Z,16.40
2018-08-18T23:47:24.524Z,16.30
2018-08-18T23:50:00.368Z,16.30
2018-08-18T23:52:28.951Z,16.30
2018-08-18T23:54:57.148Z,16.30
2018-08-18T23:57:27.437Z,16.40
2018-08-18T23:59:55.633Z,16.30
